Asharoken, New York
Current Conditions -  °F | °C
As of 10:53 AM on Friday 31 Oct 2014 (Local Time) from KFRG Reporting Station
Broken Clouds Broken Clouds  
Wind Chill: 52°   Ceiling: 5000
Heat Index: 52°   Visibility: 10mi
Dew Point: 41°   Wind: 10mph
Humidity: 66%   Direction: 50°NE
Pressure: 29.98"   Gusts: NA
Location:  40.9096°N, 73.3231°W
Report Text: KFRG 311453Z 05009KT 10SM BKN050 11/05 A2998 RMK AO2 SLP153 T01110050 58009
Loading
Personal Weather Stations






























Interactive Weather Map New forecast layout! Learn more

10-Day Weather Forecast

Advertisements
Track Severe Weather on mobile